Time;durP1;ratioP1;P1;durP2;ratioP2;P2;SDS_P1;SDS_P2;PMS_P1;PMS_P2;Temp;Humidity;BMP_temperature;BMP_pressure;BME280_temperature;BME280_humidity;BME280_pressure;Samples;Min_cycle;Max_cycle;Signal;HPM_P1;HPM_P2
2022/06/05 00:00:09;;;;;;;15.80;9.18;;;11.80;99.90;;;;;;5042266;28;20049;-81
2022/06/05 00:02:52;;;;;;;14.30;7.63;;;11.80;99.90;;;;;;5043482;28;20166;-81
2022/06/05 00:05:29;;;;;;;15.25;8.07;;;11.80;99.90;;;;;;5053078;28;20064;-81
2022/06/05 00:08:09;;;;;;;13.75;7.60;;;11.80;99.90;;;;;;5052097;28;20040;-81
2022/06/05 00:10:41;;;;;;;12.68;7.97;;;11.80;99.90;;;;;;5051489;28;20093;-80
2022/06/05 00:13:20;;;;;;;16.88;7.70;;;11.80;99.90;;;;;;5050675;28;20110;-81
2022/06/05 00:15:46;;;;;;;16.10;9.02;;;11.80;99.90;;;;;;5056697;28;20050;-81
2022/06/05 00:18:12;;;;;;;15.40;7.75;;;11.70;99.90;;;;;;5065623;28;20071;-81
2022/06/05 00:20:44;;;;;;;12.00;7.53;;;11.80;99.90;;;;;;5046504;28;20157;-81
2022/06/05 00:23:12;;;;;;;17.85;8.40;;;11.70;99.90;;;;;;5053380;28;20048;-81
2022/06/05 00:25:52;;;;;;;14.80;7.65;;;11.70;99.90;;;;;;5052071;28;20654;-81
2022/06/05 00:28:32;;;;;;;11.60;7.65;;;11.70;99.90;;;;;;5061539;28;20048;-81
2022/06/05 00:30:58;;;;;;;13.77;8.80;;;11.70;99.90;;;;;;5044957;28;20199;-80
2022/06/05 00:33:35;;;;;;;13.63;7.47;;;11.60;99.90;;;;;;5057920;28;20045;-81
2022/06/05 00:36:26;;;;;;;16.20;7.93;;;11.60;99.90;;;;;;5061987;28;20044;-81
2022/06/05 00:38:57;;;;;;;18.10;8.80;;;11.80;99.90;;;;;;5048343;28;20051;-81
2022/06/05 00:41:50;;;;;;;16.65;7.97;;;11.60;99.90;;;;;;5045913;28;20041;-81
2022/06/05 00:44:23;;;;;;;12.55;8.57;;;11.60;99.90;;;;;;5082968;28;20044;-81
2022/06/05 00:46:54;;;;;;;16.38;9.32;;;11.60;99.90;;;;;;5036321;28;20430;-81
2022/06/05 00:49:24;;;;;;;13.05;8.07;;;11.60;99.90;;;;;;5050059;28;20068;-80
2022/06/05 00:51:50;;;;;;;16.65;9.25;;;11.70;99.90;;;;;;5053983;28;20052;-80
2022/06/05 00:54:16;;;;;;;16.92;8.52;;;11.70;99.90;;;;;;5041208;28;20045;-81
2022/06/05 00:56:42;;;;;;;15.02;8.93;;;11.60;99.90;;;;;;5054240;28;20105;-81
2022/06/05 00:59:11;;;;;;;16.95;9.18;;;11.60;99.90;;;;;;5055935;28;20041;-80
2022/06/05 01:01:38;;;;;;;14.25;8.95;;;11.60;99.90;;;;;;5043561;28;20099;-80
2022/06/05 01:04:04;;;;;;;15.77;9.40;;;11.60;99.90;;;;;;5047112;28;20036;-81
2022/06/05 01:06:30;;;;;;;12.80;8.35;;;11.50;99.90;;;;;;5068647;28;20060;-81
2022/06/05 01:08:56;;;;;;;15.75;9.52;;;11.60;99.90;;;;;;5044993;28;20049;-80
2022/06/05 01:11:46;;;;;;;16.40;9.55;;;11.50;99.90;;;;;;5059921;28;20036;-81
2022/06/05 01:14:21;;;;;;;16.52;8.90;;;11.50;99.90;;;;;;5063667;28;20504;-80
2022/06/05 01:17:02;;;;;;;13.30;8.77;;;11.80;99.90;;;;;;5035985;28;20073;-80
2022/06/05 01:20:07;;;;;;;18.13;8.90;;;11.60;99.90;;;;;;5047540;28;20823;-81
2022/06/05 01:22:59;;;;;;;16.08;8.85;;;11.50;99.90;;;;;;5050063;28;20053;-80
2022/06/05 01:25:41;;;;;;;15.30;8.75;;;11.50;99.90;;;;;;5050136;28;20507;-80
2022/06/05 01:28:29;;;;;;;16.98;8.20;;;11.50;99.90;;;;;;5044128;28;20045;-81
2022/06/05 01:30:58;;;;;;;16.95;10.10;;;11.60;99.90;;;;;;5048990;28;20060;-80
2022/06/05 01:33:27;;;;;;;15.80;9.77;;;11.50;99.90;;;;;;5042878;28;20041;-80
2022/06/05 01:36:22;;;;;;;15.57;8.95;;;11.60;99.90;;;;;;5051330;28;20053;-80
2022/06/05 01:39:04;;;;;;;14.25;9.32;;;11.60;99.90;;;;;;5055352;28;20055;-80
2022/06/05 01:41:39;;;;;;;12.95;8.90;;;11.60;99.90;;;;;;5055379;28;20076;-80
2022/06/05 01:44:09;;;;;;;14.60;9.10;;;11.60;99.90;;;;;;5048382;28;20045;-80
2022/06/05 01:46:39;;;;;;;22.05;10.40;;;11.60;99.90;;;;;;5055838;28;20044;-80
2022/06/05 01:49:23;;;;;;;21.23;10.60;;;11.60;99.90;;;;;;5058251;28;20115;-80
2022/06/05 01:52:01;;;;;;;17.23;9.40;;;11.60;99.90;;;;;;5046401;28;20091;-80
2022/06/05 01:54:32;;;;;;;17.23;8.98;;;11.60;99.90;;;;;;5054378;28;20048;-80
2022/06/05 01:57:00;;;;;;;15.18;9.98;;;11.60;99.90;;;;;;5043011;28;20032;-80
2022/06/05 01:59:55;;;;;;;16.13;9.55;;;11.60;99.90;;;;;;5048656;28;20056;-80
2022/06/05 02:02:26;;;;;;;14.95;9.80;;;11.60;99.90;;;;;;5045554;28;20048;-80
2022/06/05 02:05:12;;;;;;;17.52;10.20;;;11.60;99.90;;;;;;5051362;28;20049;-80
2022/06/05 02:08:00;;;;;;;17.77;9.80;;;11.60;99.90;;;;;;5046958;28;20115;-80
2022/06/05 02:10:35;;;;;;;17.13;10.55;;;11.60;99.90;;;;;;5049518;28;20119;-80
2022/06/05 02:13:01;;;;;;;14.90;9.52;;;11.60;99.90;;;;;;5042471;28;20044;-80
2022/06/05 02:15:29;;;;;;;18.77;9.18;;;11.60;99.90;;;;;;5048771;28;20025;-80
2022/06/05 02:18:00;;;;;;;16.08;9.60;;;11.60;99.90;;;;;;5053341;28;20122;-80
2022/06/05 02:20:27;;;;;;;17.38;9.43;;;11.60;99.90;;;;;;5050691;28;20045;-80
2022/06/05 02:22:53;;;;;;;15.48;9.55;;;11.60;99.90;;;;;;5050867;28;20782;-80
2022/06/05 02:25:24;;;;;;;19.23;10.02;;;11.60;99.90;;;;;;5057832;28;20067;-80
2022/06/05 02:28:00;;;;;;;19.98;9.65;;;11.60;99.90;;;;;;5045488;28;20075;-80
2022/06/05 02:30:41;;;;;;;15.75;9.27;;;11.60;99.90;;;;;;5048413;28;20037;-81
2022/06/05 02:33:28;;;;;;;12.60;8.82;;;11.60;99.90;;;;;;5045504;28;20438;-80
2022/06/05 02:36:08;;;;;;;15.85;9.15;;;11.60;99.90;;;;;;5047662;28;20045;-80
2022/06/05 02:38:43;;;;;;;17.83;10.20;;;11.60;99.90;;;;;;5046307;28;20053;-80
2022/06/05 02:41:26;;;;;;;16.83;8.50;;;11.60;99.90;;;;;;5048313;28;20186;-80
2022/06/05 02:44:38;;;;;;;16.45;9.63;;;11.60;99.90;;;;;;5043748;28;20507;-80
2022/06/05 02:47:18;;;;;;;16.10;9.18;;;11.60;99.90;;;;;;5028458;28;20187;-80
2022/06/05 02:49:47;;;;;;;17.42;10.13;;;11.60;99.90;;;;;;5048882;28;20068;-80
2022/06/05 02:52:13;;;;;;;19.90;10.55;;;11.60;99.90;;;;;;5049371;28;20053;-80
2022/06/05 02:54:45;;;;;;;15.52;9.43;;;11.60;99.90;;;;;;5047530;28;20051;-80
2022/06/05 02:57:13;;;;;;;19.95;11.73;;;11.60;99.90;;;;;;5046118;28;20045;-80
2022/06/05 02:59:39;;;;;;;17.50;10.25;;;11.60;99.90;;;;;;5048510;28;20575;-79
2022/06/05 03:04:52;;;;;;;21.67;11.27;;;11.60;99.90;;;;;;5045809;28;20077;-79
2022/06/05 03:07:18;;;;;;;18.13;10.90;;;11.60;99.90;;;;;;5057926;28;20069;-80
2022/06/05 03:09:44;;;;;;;16.67;10.88;;;11.60;99.90;;;;;;5047909;28;20121;-79
2022/06/05 03:12:10;;;;;;;21.35;11.35;;;11.60;99.90;;;;;;5052112;28;20479;-79
2022/06/05 03:14:36;;;;;;;17.48;11.30;;;11.60;99.90;;;;;;5051577;28;20032;-79
2022/06/05 03:17:02;;;;;;;21.15;11.13;;;11.60;99.90;;;;;;5043073;28;20431;-80
2022/06/05 03:19:28;;;;;;;16.90;10.98;;;11.60;99.90;;;;;;5053225;28;20068;-80
2022/06/05 03:21:55;;;;;;;19.70;11.27;;;11.60;99.90;;;;;;5055646;28;20527;-79
2022/06/05 03:24:21;;;;;;;17.67;11.50;;;11.60;99.90;;;;;;5050961;28;20042;-79
2022/06/05 03:26:46;;;;;;;18.90;11.43;;;11.60;99.90;;;;;;5058903;28;20048;-80
2022/06/05 03:29:12;;;;;;;19.98;11.60;;;11.60;99.90;;;;;;5050911;28;20395;-79
2022/06/05 03:31:40;;;;;;;21.00;11.52;;;11.60;99.90;;;;;;5051771;28;20047;-78
2022/06/05 03:34:06;;;;;;;19.83;11.07;;;11.60;99.90;;;;;;5048781;28;20496;-80
2022/06/05 03:36:34;;;;;;;21.75;12.25;;;11.70;99.90;;;;;;5056384;28;20098;-79
2022/06/05 03:38:59;;;;;;;19.63;11.45;;;11.70;99.90;;;;;;5053291;28;20033;-80
2022/06/05 03:41:25;;;;;;;21.50;11.48;;;11.70;99.90;;;;;;5049413;28;20451;-79
2022/06/05 03:43:51;;;;;;;20.83;11.45;;;11.70;99.90;;;;;;5048281;28;20100;-79
2022/06/05 03:46:17;;;;;;;22.13;13.02;;;11.70;99.90;;;;;;5054113;28;20033;-79
2022/06/05 03:48:43;;;;;;;22.45;11.55;;;11.70;99.90;;;;;;5045674;28;20037;-80
2022/06/05 03:51:20;;;;;;;20.05;12.57;;;11.80;99.90;;;;;;5049714;28;20118;-79
2022/06/05 03:53:46;;;;;;;21.23;11.35;;;12.00;99.90;;;;;;5063056;28;20196;-80
2022/06/05 03:56:15;;;;;;;22.20;12.27;;;11.80;99.90;;;;;;5052406;28;20075;-79
2022/06/05 03:58:41;;;;;;;22.48;12.73;;;11.80;99.90;;;;;;5049838;28;20079;-79
2022/06/05 04:01:08;;;;;;;20.48;10.60;;;11.80;99.90;;;;;;5057656;28;20076;-79
2022/06/05 04:03:35;;;;;;;17.58;11.82;;;11.90;99.90;;;;;;5056892;28;20052;-80
2022/06/05 04:06:00;;;;;;;21.05;12.25;;;11.90;99.90;;;;;;5042154;28;20052;-79
2022/06/05 04:08:29;;;;;;;20.42;12.35;;;11.90;99.90;;;;;;5052102;28;20123;-79
2022/06/05 04:10:55;;;;;;;21.85;12.13;;;11.90;99.90;;;;;;5051147;28;20136;-79
2022/06/05 04:13:22;;;;;;;21.80;13.10;;;11.90;99.90;;;;;;5062378;28;20044;-79
2022/06/05 04:15:47;;;;;;;19.70;11.65;;;11.90;99.90;;;;;;5057576;28;20083;-79
2022/06/05 04:18:13;;;;;;;19.20;12.48;;;12.00;99.90;;;;;;5055727;28;20465;-79
2022/06/05 04:20:39;;;;;;;19.30;11.38;;;12.00;99.90;;;;;;5048945;28;20053;-79
2022/06/05 04:23:05;;;;;;;19.08;11.88;;;12.10;99.90;;;;;;5055260;28;20123;-79
2022/06/05 04:25:30;;;;;;;19.38;12.05;;;12.20;99.90;;;;;;5050587;28;20041;-79
2022/06/05 04:27:56;;;;;;;22.55;12.88;;;12.10;99.90;;;;;;5053139;28;20083;-79
2022/06/05 04:30:26;;;;;;;27.17;13.90;;;12.20;99.90;;;;;;5048805;28;20467;-78
2022/06/05 04:32:52;;;;;;;20.40;12.10;;;12.20;99.90;;;;;;5049809;28;20103;-79
2022/06/05 04:35:18;;;;;;;21.15;13.45;;;12.30;99.90;;;;;;5049615;28;20033;-79
2022/06/05 04:37:44;;;;;;;24.15;14.40;;;12.40;99.90;;;;;;5050950;28;20049;-79
2022/06/05 04:40:10;;;;;;;20.98;13.55;;;12.40;99.90;;;;;;5050041;28;20044;-79
2022/06/05 04:42:36;;;;;;;21.75;13.05;;;12.50;99.90;;;;;;5049455;28;20040;-79
2022/06/05 04:45:03;;;;;;;19.13;13.07;;;12.50;99.90;;;;;;5049997;28;20049;-79
2022/06/05 04:47:29;;;;;;;21.90;12.65;;;12.60;99.90;;;;;;5041970;28;20037;-79
2022/06/05 04:49:56;;;;;;;18.25;12.57;;;12.60;99.90;;;;;;5053039;28;20110;-79
2022/06/05 04:52:23;;;;;;;18.15;12.07;;;12.70;99.90;;;;;;5051176;28;20476;-79
2022/06/05 04:54:50;;;;;;;20.90;12.65;;;12.70;99.90;;;;;;5046693;28;20057;-79
2022/06/05 04:57:16;;;;;;;22.05;13.70;;;12.80;99.90;;;;;;5032498;28;20044;-79
2022/06/05 04:59:41;;;;;;;22.17;12.68;;;12.90;99.90;;;;;;5053234;28;20565;-79
2022/06/05 05:02:07;;;;;;;23.80;14.05;;;12.80;99.90;;;;;;5050294;28;20453;-79
2022/06/05 05:04:33;;;;;;;21.52;12.82;;;12.90;99.90;;;;;;5049606;28;20700;-79
2022/06/05 05:06:58;;;;;;;19.98;11.98;;;13.00;99.90;;;;;;5051108;28;20571;-79
2022/06/05 05:09:25;;;;;;;19.13;12.57;;;13.10;99.90;;;;;;5052512;28;20049;-79
2022/06/05 05:11:51;;;;;;;18.88;12.63;;;13.10;99.90;;;;;;5060560;28;20036;-79
2022/06/05 05:14:17;;;;;;;22.90;12.15;;;13.20;99.90;;;;;;5049541;28;20453;-79
2022/06/05 05:16:42;;;;;;;19.00;12.50;;;13.30;99.90;;;;;;5054301;28;20044;-79
2022/06/05 05:19:08;;;;;;;17.15;11.15;;;13.30;99.90;;;;;;5053742;28;20053;-79
2022/06/05 05:21:34;;;;;;;20.88;13.02;;;13.40;99.90;;;;;;5049397;28;20132;-80
2022/06/05 05:24:00;;;;;;;19.58;12.57;;;13.50;99.90;;;;;;5048459;28;20120;-77
2022/06/05 05:26:30;;;;;;;17.92;11.27;;;13.60;99.90;;;;;;5050784;28;20049;-83
2022/06/05 05:28:56;;;;;;;20.52;12.32;;;13.60;99.90;;;;;;5046841;28;20143;-81
2022/06/05 05:31:30;;;;;;;19.58;11.80;;;13.70;99.90;;;;;;5047463;28;20055;-80
2022/06/05 05:33:56;;;;;;;16.13;11.13;;;13.80;99.90;;;;;;5046264;28;20530;-79
2022/06/05 05:36:24;;;;;;;16.77;10.88;;;13.80;99.90;;;;;;5050224;28;20045;-79
2022/06/05 05:44:20;;;;;;;17.13;12.00;;;14.10;99.90;;;;;;5039987;28;20128;-82
2022/06/05 05:46:46;;;;;;;16.92;11.88;;;14.10;99.90;;;;;;5047951;28;20132;-82
2022/06/05 05:49:13;;;;;;;16.90;10.68;;;14.30;99.90;;;;;;5053350;28;20044;-82
2022/06/05 05:51:39;;;;;;;18.05;11.10;;;14.30;99.90;;;;;;5042530;28;20099;-82
2022/06/05 05:54:06;;;;;;;18.38;11.43;;;14.30;99.90;;;;;;5049944;28;20479;-83
2022/06/05 05:56:31;;;;;;;16.90;11.20;;;14.40;99.90;;;;;;5046430;28;20135;-82
2022/06/05 05:58:57;;;;;;;15.40;10.65;;;14.40;99.90;;;;;;5050388;28;20120;-82
2022/06/05 06:01:23;;;;;;;17.20;11.05;;;14.50;99.90;;;;;;5049351;28;20111;-82
2022/06/05 06:03:49;;;;;;;18.17;10.68;;;14.50;99.90;;;;;;5045867;28;20044;-82
2022/06/05 06:06:15;;;;;;;16.20;10.20;;;14.50;99.90;;;;;;5045071;28;20372;-82
2022/06/05 06:08:40;;;;;;;16.67;11.18;;;14.60;99.90;;;;;;5049111;28;20110;-82
2022/06/05 06:11:06;;;;;;;17.27;10.40;;;14.60;99.90;;;;;;5046095;28;20133;-83
2022/06/05 06:13:32;;;;;;;16.98;10.77;;;14.70;99.90;;;;;;5047290;28;20502;-82
2022/06/05 06:15:57;;;;;;;18.77;10.13;;;15.10;99.90;;;;;;5052826;28;20041;-82
2022/06/05 06:18:23;;;;;;;15.38;10.48;;;14.90;99.90;;;;;;5048844;28;20051;-82
2022/06/05 06:20:49;;;;;;;16.65;10.48;;;15.00;99.90;;;;;;5050567;28;20450;-85
2022/06/05 06:23:15;;;;;;;17.35;10.48;;;15.00;99.90;;;;;;5044556;28;20049;-81
2022/06/05 06:25:41;;;;;;;17.02;10.00;;;15.20;99.90;;;;;;5046907;28;20036;-82
2022/06/05 06:28:07;;;;;;;19.77;10.68;;;15.10;99.90;;;;;;5048571;28;20069;-81
2022/06/05 06:30:35;;;;;;;14.90;10.30;;;15.20;99.90;;;;;;5049606;28;20072;-81
2022/06/05 06:33:00;;;;;;;17.60;10.80;;;15.20;99.90;;;;;;5040976;28;20094;-81
2022/06/05 06:35:26;;;;;;;16.85;10.68;;;15.30;99.90;;;;;;5049896;28;20045;-81
2022/06/05 06:37:52;;;;;;;17.30;10.07;;;15.40;99.90;;;;;;5045861;28;20045;-81
2022/06/05 06:40:18;;;;;;;21.70;10.57;;;15.50;99.90;;;;;;5049102;28;20369;-82
2022/06/05 06:42:43;;;;;;;17.95;10.63;;;15.50;99.90;;;;;;5050639;28;20056;-82
2022/06/05 06:45:10;;;;;;;19.40;10.85;;;15.60;99.90;;;;;;5046594;28;20040;-77
2022/06/05 06:47:35;;;;;;;14.07;9.85;;;15.70;99.90;;;;;;5047357;28;20124;-77
2022/06/05 06:50:01;;;;;;;18.27;10.88;;;15.70;99.90;;;;;;5050425;28;20108;-78
2022/06/05 06:52:27;;;;;;;19.75;11.52;;;15.80;99.90;;;;;;5055624;28;20040;-77
2022/06/05 06:54:53;;;;;;;13.93;10.48;;;15.90;99.90;;;;;;5045194;28;20048;-77
2022/06/05 06:57:19;;;;;;;18.05;9.68;;;16.00;99.90;;;;;;5052341;28;20151;-77
2022/06/05 06:59:45;;;;;;;16.95;10.43;;;16.10;99.90;;;;;;5045669;28;20128;-78
2022/06/05 07:02:10;;;;;;;19.15;10.82;;;16.10;99.90;;;;;;5042357;28;20048;-77
2022/06/05 07:04:36;;;;;;;15.38;10.48;;;16.30;99.90;;;;;;5047873;28;20537;-77
2022/06/05 07:07:02;;;;;;;14.93;10.60;;;16.30;99.90;;;;;;5053622;28;20444;-78
2022/06/05 07:09:27;;;;;;;16.10;9.75;;;16.40;99.90;;;;;;5053143;28;20098;-75
2022/06/05 07:11:53;;;;;;;16.38;10.40;;;16.50;99.90;;;;;;5055458;28;20044;-74
2022/06/05 07:14:19;;;;;;;16.30;10.55;;;16.70;99.90;;;;;;5053393;28;20064;-74
2022/06/05 07:16:44;;;;;;;15.55;10.75;;;16.80;99.90;;;;;;5053526;28;20068;-77
2022/06/05 07:19:11;;;;;;;15.50;10.13;;;17.00;99.90;;;;;;5049348;28;20095;-78
2022/06/05 07:21:36;;;;;;;15.18;9.77;;;17.10;99.90;;;;;;5053554;28;20044;-77
2022/06/05 07:24:02;;;;;;;15.43;9.80;;;17.30;99.90;;;;;;5050165;28;20033;-77
2022/06/05 07:26:30;;;;;;;15.95;9.15;;;17.50;99.90;;;;;;5053535;28;20037;-78
2022/06/05 07:28:56;;;;;;;13.65;9.45;;;17.60;99.90;;;;;;5050813;28;20045;-75
2022/06/05 07:31:23;;;;;;;13.70;8.38;;;17.90;99.90;;;;;;5047477;28;20052;-78
2022/06/05 07:33:49;;;;;;;14.70;9.20;;;18.00;99.90;;;;;;5055712;28;20530;-75
2022/06/05 07:36:17;;;;;;;15.20;10.20;;;18.20;99.90;;;;;;5046651;28;20033;-76
2022/06/05 07:38:44;;;;;;;16.92;9.23;;;18.40;99.90;;;;;;5065797;28;20399;-76
2022/06/05 07:41:21;;;;;;;14.40;8.75;;;18.50;99.90;;;;;;5044937;28;20115;-76
2022/06/05 07:43:47;;;;;;;13.52;8.07;;;18.60;99.90;;;;;;5042315;28;20041;-75
2022/06/05 07:46:13;;;;;;;15.07;8.77;;;18.70;99.90;;;;;;5047522;28;20124;-76
2022/06/05 07:48:39;;;;;;;12.02;8.90;;;18.80;99.90;;;;;;5051858;28;20840;-77
2022/06/05 07:56:38;;;;;;;10.43;7.13;;;19.00;99.90;;;;;;5054056;28;20045;-83
2022/06/05 07:59:04;;;;;;;13.90;7.63;;;19.00;99.90;;;;;;5052722;28;20052;-82
2022/06/05 08:01:30;;;;;;;12.20;7.82;;;19.10;99.90;;;;;;5054736;28;20037;-89
2022/06/05 08:03:56;;;;;;;12.32;7.43;;;19.20;99.90;;;;;;5052690;28;20106;-84
2022/06/05 08:06:22;;;;;;;11.32;7.60;;;19.40;99.90;;;;;;5051100;28;20498;-81
2022/06/05 08:08:48;;;;;;;11.02;7.85;;;19.40;99.90;;;;;;5050974;28;20037;-79
2022/06/05 08:11:14;;;;;;;10.32;7.45;;;19.50;99.90;;;;;;5052919;28;20393;-82
2022/06/05 08:13:39;;;;;;;10.18;7.13;;;19.60;99.90;;;;;;5054576;28;20040;-82
2022/06/05 08:16:05;;;;;;;10.27;6.75;;;19.70;99.90;;;;;;5051761;28;20109;-82
2022/06/05 08:18:31;;;;;;;10.45;7.30;;;19.80;99.90;;;;;;5053279;28;20080;-82
2022/06/05 08:20:57;;;;;;;10.02;7.00;;;19.80;99.90;;;;;;5052169;28;20083;-82
2022/06/05 08:23:23;;;;;;;10.60;6.50;;;19.90;99.90;;;;;;5045440;28;20044;-82
2022/06/05 08:25:49;;;;;;;10.10;7.20;;;20.00;99.90;;;;;;5051091;28;20715;-83
2022/06/05 08:28:16;;;;;;;9.85;7.40;;;20.10;99.90;;;;;;5052955;28;20387;-81
2022/06/05 08:30:41;;;;;;;11.55;7.22;;;20.10;99.90;;;;;;5052084;28;20091;-80
2022/06/05 08:33:08;;;;;;;9.23;6.85;;;20.10;99.90;;;;;;5052182;28;20045;-79
2022/06/05 08:35:34;;;;;;;10.45;6.68;;;20.20;99.90;;;;;;5053987;28;20037;-81
2022/06/05 08:44:08;;;;;;;9.88;6.63;;;20.50;99.90;;;;;;5057989;28;20049;-82
2022/06/05 08:46:45;;;;;;;10.10;6.82;;;20.60;99.90;;;;;;5054994;28;20100;-83
2022/06/05 08:49:30;;;;;;;9.38;7.20;;;20.80;99.90;;;;;;5057424;28;20045;-83
2022/06/05 08:52:05;;;;;;;10.32;7.63;;;20.80;99.90;;;;;;5050216;28;20033;-83
2022/06/05 08:54:44;;;;;;;11.20;7.68;;;20.80;99.90;;;;;;5049510;28;20124;-83
2022/06/05 08:57:34;;;;;;;9.05;6.38;;;20.90;99.90;;;;;;5053182;28;20044;-83
2022/06/05 09:00:19;;;;;;;13.00;7.05;;;21.00;99.90;;;;;;5051324;28;20047;-84
2022/06/05 09:02:54;;;;;;;9.50;6.63;;;20.90;99.90;;;;;;5046899;28;20846;-83
2022/06/05 09:05:45;;;;;;;8.07;6.32;;;21.00;99.90;;;;;;5052572;28;20041;-84
2022/06/05 09:08:18;;;;;;;12.35;6.63;;;21.00;99.90;;;;;;5065664;28;20060;-82
2022/06/05 09:10:51;;;;;;;8.30;6.28;;;21.00;99.90;;;;;;5049794;28;20041;-83
2022/06/05 09:13:28;;;;;;;9.07;6.60;;;21.00;99.90;;;;;;5050273;28;20071;-82
2022/06/05 09:16:00;;;;;;;9.18;6.28;;;21.00;99.90;;;;;;5042960;28;20079;-82
2022/06/05 09:18:31;;;;;;;10.85;6.53;;;21.10;99.90;;;;;;5053536;28;20044;-82
2022/06/05 09:21:00;;;;;;;10.20;6.40;;;21.10;99.90;;;;;;5053200;28;20048;-81
2022/06/05 09:23:59;;;;;;;10.00;6.47;;;21.30;99.90;;;;;;5053317;28;20041;-82
2022/06/05 09:26:40;;;;;;;9.75;6.72;;;21.40;99.90;;;;;;5061867;28;20084;-82
2022/06/05 09:29:30;;;;;;;10.13;6.45;;;21.60;99.90;;;;;;5031891;28;20046;-82
2022/06/05 09:32:17;;;;;;;9.07;6.63;;;21.80;99.90;;;;;;5055131;28;20041;-81
2022/06/05 09:35:02;;;;;;;12.05;6.78;;;22.00;99.90;;;;;;5047107;28;20044;-79
2022/06/05 09:37:40;;;;;;;8.35;5.85;;;22.10;99.90;;;;;;5058165;28;20053;-80
2022/06/05 09:40:22;;;;;;;10.82;6.30;;;22.20;99.90;;;;;;5049231;28;20069;-80
2022/06/05 09:43:06;;;;;;;10.23;6.45;;;22.30;99.90;;;;;;5068241;28;20083;-80
2022/06/05 09:45:57;;;;;;;10.25;6.70;;;22.40;99.90;;;;;;5055256;28;20171;-80
2022/06/05 09:48:29;;;;;;;8.93;6.32;;;22.50;99.90;;;;;;5050162;28;20049;-84
2022/06/05 09:50:56;;;;;;;7.93;6.60;;;22.60;99.90;;;;;;5053212;28;20117;-82
2022/06/05 09:53:30;;;;;;;10.18;5.68;;;22.60;99.90;;;;;;5068539;28;20048;-82
2022/06/05 09:56:33;;;;;;;8.43;5.57;;;22.60;99.90;;;;;;5048749;28;20045;-79
2022/06/05 09:59:20;;;;;;;9.20;6.72;;;22.70;99.90;;;;;;5046736;28;20036;-78
2022/06/05 10:01:54;;;;;;;11.98;6.53;;;22.70;99.90;;;;;;5047998;28;20091;-78
2022/06/05 10:04:21;;;;;;;8.18;6.30;;;22.70;99.90;;;;;;5048896;28;20040;-78
2022/06/05 10:07:03;;;;;;;7.40;6.00;;;22.70;99.90;;;;;;5048404;28;20120;-80
2022/06/05 10:09:30;;;;;;;9.23;5.93;;;22.80;99.90;;;;;;5049290;28;20682;-80
2022/06/05 10:11:57;;;;;;;6.90;5.40;;;22.90;99.90;;;;;;5048251;28;20045;-80
2022/06/05 10:14:56;;;;;;;7.55;6.60;;;23.10;99.90;;;;;;5050726;28;20049;-81
2022/06/05 10:17:31;;;;;;;7.60;5.70;;;23.20;99.90;;;;;;5056413;28;20041;-80
2022/06/05 10:20:36;;;;;;;7.53;6.10;;;23.40;99.90;;;;;;5048840;28;20075;-80
2022/06/05 10:23:27;;;;;;;9.10;5.72;;;23.50;99.90;;;;;;5047821;28;20050;-80
2022/06/05 10:26:17;;;;;;;7.78;5.70;;;23.60;99.90;;;;;;5049094;28;20054;-80
2022/06/05 10:28:49;;;;;;;10.00;6.63;;;23.60;99.90;;;;;;5049096;28;20123;-80
2022/06/05 10:31:21;;;;;;;6.60;5.38;;;23.60;99.90;;;;;;5047868;28;20511;-80
2022/06/05 10:34:11;;;;;;;7.55;5.88;;;23.60;99.90;;;;;;5045595;28;20041;-80
2022/06/05 10:36:56;;;;;;;8.32;5.25;;;23.70;99.90;;;;;;5050367;28;20507;-80
2022/06/05 10:39:58;;;;;;;8.77;5.60;;;23.90;99.90;;;;;;5042925;28;20047;-80
2022/06/05 10:42:32;;;;;;;8.07;6.07;;;23.90;99.60;;;;;;5046779;28;20056;-81
2022/06/05 10:45:04;;;;;;;8.27;6.25;;;23.90;99.90;;;;;;5043951;28;20041;-83
2022/06/05 10:48:08;;;;;;;9.02;5.80;;;23.90;99.90;;;;;;5052613;28;20048;-83
2022/06/05 10:50:43;;;;;;;8.55;5.47;;;23.90;99.90;;;;;;5049362;28;20056;-83
2022/06/05 10:53:37;;;;;;;10.35;5.70;;;23.90;99.90;;;;;;5047604;28;20052;-84
2022/06/05 10:56:33;;;;;;;8.95;5.43;;;23.90;99.70;;;;;;5043076;28;20511;-83
2022/06/05 10:59:05;;;;;;;7.78;5.07;;;24.00;99.90;;;;;;5048478;28;20443;-81
2022/06/05 11:01:35;;;;;;;7.97;5.28;;;24.10;99.90;;;;;;5045685;28;20072;-80
2022/06/05 11:04:22;;;;;;;9.40;6.07;;;24.20;99.70;;;;;;5046392;28;20033;-81
2022/06/05 11:07:24;;;;;;;9.27;5.43;;;24.20;98.80;;;;;;5047824;28;20049;-80
2022/06/05 11:09:56;;;;;;;9.48;6.93;;;24.20;99.30;;;;;;5049748;28;20080;-81
2022/06/05 11:15:54;;;;;;;11.25;5.70;;;24.20;98.70;;;;;;5047429;28;20479;-81
2022/06/05 11:18:40;;;;;;;8.30;5.57;;;24.30;98.90;;;;;;5046111;28;20045;-82
2022/06/05 11:21:07;;;;;;;8.27;5.20;;;24.40;99.40;;;;;;5061998;28;20061;-80
2022/06/05 11:23:37;;;;;;;7.72;5.25;;;24.50;99.20;;;;;;5047081;28;20387;-81
2022/06/05 11:26:26;;;;;;;8.45;5.32;;;24.50;99.20;;;;;;5046589;28;20038;-80
2022/06/05 11:29:09;;;;;;;8.07;5.38;;;24.60;98.90;;;;;;5062111;28;20071;-80
2022/06/05 11:31:59;;;;;;;8.88;5.07;;;24.60;98.20;;;;;;5047091;28;20044;-80
2022/06/05 11:34:45;;;;;;;9.48;5.07;;;24.50;98.60;;;;;;5042885;28;20499;-78
2022/06/05 11:37:41;;;;;;;9.18;5.28;;;24.60;98.70;;;;;;5048411;28;20056;-79
2022/06/05 11:40:17;;;;;;;7.03;5.22;;;24.50;98.30;;;;;;5049927;28;20049;-79
2022/06/05 11:43:01;;;;;;;8.85;4.97;;;24.40;98.60;;;;;;5051069;28;20198;-80
2022/06/05 11:46:09;;;;;;;9.50;5.38;;;24.40;97.90;;;;;;5052242;28;20072;-80
2022/06/05 11:48:46;;;;;;;6.88;5.10;;;24.40;97.60;;;;;;5061196;28;20051;-80
2022/06/05 11:51:39;;;;;;;80.30;10.00;;;24.30;98.10;;;;;;5051787;28;20543;-80
2022/06/05 11:54:07;;;;;;;10.00;4.97;;;24.40;98.20;;;;;;5047994;28;20049;-80
2022/06/05 11:56:48;;;;;;;11.07;5.45;;;24.40;98.40;;;;;;5052066;28;20095;-80
2022/06/05 11:59:25;;;;;;;6.75;4.75;;;24.40;97.70;;;;;;5053160;28;20041;-80
2022/06/05 12:02:00;;;;;;;8.75;5.30;;;24.40;97.80;;;;;;5051416;28;20507;-80
2022/06/05 12:04:46;;;;;;;11.90;5.40;;;24.30;97.90;;;;;;5052360;28;20125;-80
2022/06/05 12:07:14;;;;;;;14.45;5.32;;;24.30;97.50;;;;;;5051119;28;20059;-80
2022/06/05 12:09:49;;;;;;;10.85;5.65;;;24.40;98.00;;;;;;5052483;28;20041;-79
2022/06/05 12:12:22;;;;;;;9.80;5.47;;;24.40;98.10;;;;;;5048795;28;20115;-79
2022/06/05 12:14:56;;;;;;;6.75;5.38;;;24.40;98.30;;;;;;5050488;28;20044;-79
2022/06/05 12:17:31;;;;;;;10.50;5.88;;;24.50;98.30;;;;;;5049087;28;20045;-79
2022/06/05 12:20:23;;;;;;;9.23;5.47;;;24.50;98.20;;;;;;5049886;28;20060;-80
2022/06/05 12:22:59;;;;;;;6.68;5.45;;;24.60;97.50;;;;;;5054959;28;20411;-80
2022/06/05 12:25:58;;;;;;;10.60;5.90;;;24.50;97.90;;;;;;5055562;28;20051;-80
2022/06/05 12:28:40;;;;;;;12.93;5.75;;;24.50;97.70;;;;;;5046201;28;20507;-81
2022/06/05 12:31:25;;;;;;;7.72;5.45;;;24.50;97.90;;;;;;5050660;28;20906;-79
2022/06/05 12:34:18;;;;;;;10.38;5.35;;;24.50;97.60;;;;;;5048663;28;20045;-79
2022/06/05 12:37:02;;;;;;;8.18;5.90;;;24.50;97.80;;;;;;5044680;28;20403;-79
2022/06/05 12:39:31;;;;;;;7.88;5.30;;;24.40;97.90;;;;;;5049357;28;20071;-78
2022/06/05 12:41:59;;;;;;;7.47;5.82;;;24.40;97.90;;;;;;5051754;28;20048;-80
2022/06/05 12:44:59;;;;;;;9.60;5.18;;;24.40;98.30;;;;;;5054404;28;20037;-80
2022/06/05 12:47:57;;;;;;;7.45;5.63;;;24.40;98.50;;;;;;5048285;28;20144;-82
2022/06/05 12:50:54;;;;;;;8.25;5.40;;;24.30;98.00;;;;;;5053606;28;20127;-75
2022/06/05 12:53:48;;;;;;;9.80;5.65;;;24.30;98.10;;;;;;5047405;28;20048;-80
2022/06/05 12:56:38;;;;;;;5.38;4.60;;;24.30;98.50;;;;;;5047959;28;20049;-80
2022/06/05 12:59:23;;;;;;;11.63;5.22;;;24.30;98.60;;;;;;5060464;28;20088;-82
2022/06/05 13:02:47;;;;;;;11.07;4.90;;;24.30;98.10;;;;;;5052793;28;20615;-80
2022/06/05 13:05:35;;;;;;;12.60;5.72;;;24.20;98.60;;;;;;5013658;28;20179;-80
2022/06/05 13:08:07;;;;;;;9.40;5.35;;;24.20;98.10;;;;;;5043949;28;20044;-81
2022/06/05 13:10:49;;;;;;;62.30;8.27;;;24.20;98.30;;;;;;5048703;28;20049;-81
2022/06/05 13:13:37;;;;;;;19.15;5.95;;;24.30;97.80;;;;;;5044071;28;20040;-81
2022/06/05 13:16:06;;;;;;;13.05;5.65;;;24.30;98.30;;;;;;5051207;28;20055;-81
2022/06/05 13:19:01;;;;;;;11.85;5.80;;;24.30;98.80;;;;;;5050500;28;20446;-80
2022/06/05 13:21:35;;;;;;;8.73;5.45;;;24.40;98.50;;;;;;5045908;28;20048;-81
2022/06/05 13:24:29;;;;;;;6.97;5.03;;;24.40;98.70;;;;;;5048947;28;20458;-81
2022/06/05 13:27:23;;;;;;;7.88;5.13;;;24.40;98.10;;;;;;5052620;28;20059;-79
2022/06/05 13:30:06;;;;;;;6.38;5.20;;;24.40;97.50;;;;;;5048584;28;20060;-82
2022/06/05 13:33:07;;;;;;;5.95;5.15;;;24.50;98.00;;;;;;5043796;28;20086;-81